createdAt,value
2023-01-04T00:02:13.963Z,97750.09
2023-01-04T00:04:42.385Z,97740.88
2023-01-04T00:07:11.331Z,97751.78
2023-01-04T00:09:39.889Z,97741.19
2023-01-04T00:12:08.740Z,97738.03
2023-01-04T00:14:37.159Z,97737.84
2023-01-04T00:17:06.870Z,97730.28
2023-01-04T00:19:36.149Z,97720.56
2023-01-04T00:22:04.846Z,97717.72
2023-01-04T00:24:33.228Z,97726.75
2023-01-04T00:27:01.724Z,97731.28
2023-01-04T00:29:30.744Z,97736.16
2023-01-04T00:31:59.556Z,97731.47
2023-01-04T00:34:29.534Z,97723.06
2023-01-04T00:36:58.366Z,97715.22
2023-01-04T00:39:26.928Z,97720.75
2023-01-04T00:42:05.534Z,97708.66
2023-01-04T00:44:35.465Z,97694.56
2023-01-04T00:47:06.008Z,97702.13
2023-01-04T00:49:35.912Z,97717.84
2023-01-04T00:52:05.111Z,97709.00
2023-01-04T00:54:33.523Z,97718.88
2023-01-04T00:57:03.047Z,97708.47
2023-01-04T00:59:31.708Z,97715.88
2023-01-04T01:02:00.617Z,97700.50
2023-01-04T01:04:29.675Z,97698.97
2023-01-04T01:06:59.570Z,97692.41
2023-01-04T01:09:28.918Z,97683.72
2023-01-04T01:11:57.317Z,97695.44
2023-01-04T01:14:26.880Z,97695.78
2023-01-04T01:16:58.062Z,97700.44
2023-01-04T01:19:29.029Z,97696.91
2023-01-04T01:22:00.002Z,97690.22
2023-01-04T01:24:28.847Z,97703.94
2023-01-04T01:26:58.148Z,97685.03
2023-01-04T01:29:26.597Z,97694.09
2023-01-04T01:31:55.481Z,97700.13
2023-01-04T01:34:24.865Z,97706.47
2023-01-04T01:36:53.249Z,97691.72
2023-01-04T01:39:24.070Z,97701.78
2023-01-04T01:41:52.441Z,97706.47
2023-01-04T01:44:58.572Z,97706.97
2023-01-04T01:47:31.513Z,97708.47
2023-01-04T01:50:01.401Z,97717.50
2023-01-04T01:52:34.041Z,97703.25
2023-01-04T01:55:09.265Z,97713.50
2023-01-04T01:57:39.874Z,97691.72
2023-01-04T02:00:14.829Z,97698.09
2023-01-04T02:02:50.453Z,97647.84
2023-01-04T02:05:20.904Z,97690.41
2023-01-04T02:07:51.187Z,97665.28
2023-01-04T02:10:21.465Z,97690.06
2023-01-04T02:12:52.195Z,97679.19
2023-01-04T02:15:23.698Z,97673.63
2023-01-04T02:18:00.183Z,97666.94
2023-01-04T02:20:45.595Z,97668.41
2023-01-04T02:24:01.401Z,97683.09
2023-01-04T02:26:51.942Z,97674.06
2023-01-04T02:30:06.600Z,97668.50
2023-01-04T02:32:47.430Z,97660.47
2023-01-04T02:35:23.225Z,97661.50
2023-01-04T02:37:59.622Z,97669.16
2023-01-04T02:40:35.956Z,97662.84
2023-01-04T02:43:30.708Z,97663.88
2023-01-04T02:46:05.209Z,97660.38
2023-01-04T02:48:56.881Z,97644.63
2023-01-04T02:51:31.395Z,97628.72
2023-01-04T02:54:02.142Z,97667.28
2023-01-04T02:56:43.146Z,97654.06
2023-01-04T02:59:36.342Z,97644.53
2023-01-04T03:02:38.817Z,97635.31
2023-01-04T03:05:39.975Z,97636.31
2023-01-04T03:08:18.007Z,97636.63
2023-01-04T03:10:51.853Z,97638.63
2023-01-04T03:13:24.674Z,97636.81
2023-01-04T03:15:55.373Z,97643.88
2023-01-04T03:18:28.546Z,97647.56
2023-01-04T03:21:01.297Z,97641.69
2023-01-04T03:23:53.128Z,97639.84
2023-01-04T03:26:43.054Z,97638.19
2023-01-04T03:29:36.370Z,97640.88
2023-01-04T03:32:27.192Z,97646.41
2023-01-04T03:35:14.425Z,97642.72
2023-01-04T03:37:50.034Z,97648.25
2023-01-04T03:40:43.560Z,97641.72
2023-01-04T03:43:35.919Z,97642.56
2023-01-04T03:46:27.101Z,97637.22
2023-01-04T03:49:00.144Z,97627.50
2023-01-04T03:51:32.887Z,97627.81
2023-01-04T03:54:09.578Z,97637.19
2023-01-04T03:56:42.577Z,97625.47
2023-01-04T03:59:12.844Z,97633.03
2023-01-04T04:01:45.292Z,97634.53
2023-01-04T04:04:34.660Z,97611.91
2023-01-04T04:07:20.494Z,97608.06
2023-01-04T04:09:50.748Z,97608.72
2023-01-04T04:12:19.174Z,97617.09
2023-01-04T04:14:48.302Z,97591.31
2023-01-04T04:17:16.676Z,97611.41
2023-01-04T04:19:45.065Z,97614.44
2023-01-04T04:22:13.855Z,97609.72
2023-01-04T04:24:42.460Z,97609.38
2023-01-04T04:27:12.816Z,97572.25
2023-01-04T04:29:41.407Z,97604.69
2023-01-04T04:32:10.627Z,97561.84
2023-01-04T04:34:40.915Z,97586.91
2023-01-04T04:37:10.899Z,97557.81
2023-01-04T04:39:39.357Z,97593.13
2023-01-04T04:42:07.560Z,97584.56
2023-01-04T04:44:37.640Z,97581.38
2023-01-04T04:47:07.103Z,97582.41
2023-01-04T04:49:35.547Z,97574.53
2023-01-04T04:52:04.819Z,97570.53
2023-01-04T04:54:33.678Z,97577.22
2023-01-04T04:57:02.240Z,97564.31
2023-01-04T04:59:31.233Z,97564.69
2023-01-04T05:02:01.169Z,97565.00
2023-01-04T05:04:30.326Z,97537.72
2023-01-04T05:06:58.962Z,97561.97
2023-01-04T05:09:27.324Z,97572.03
2023-01-04T05:12:16.451Z,97568.88
2023-01-04T05:14:44.817Z,97580.25
2023-01-04T05:17:15.118Z,97566.34
2023-01-04T05:19:43.512Z,97559.13
2023-01-04T05:22:12.899Z,97560.66
2023-01-04T05:24:41.301Z,97567.19
2023-01-04T05:27:10.695Z,97573.03
2023-01-04T05:29:56.979Z,97576.88
2023-01-04T05:32:27.486Z,97568.66
2023-01-04T05:34:56.523Z,97567.19
2023-01-04T05:37:26.032Z,97572.53
2023-01-04T05:39:54.589Z,97550.59
2023-01-04T05:42:28.404Z,97569.34
2023-01-04T05:44:58.651Z,97569.84
2023-01-04T05:47:29.370Z,97572.88
2023-01-04T05:49:57.873Z,97554.13
2023-01-04T05:52:27.605Z,97573.84
2023-01-04T05:54:56.026Z,97575.34
2023-01-04T05:57:25.164Z,97576.53
2023-01-04T05:59:53.640Z,97574.34
2023-01-04T06:02:25.164Z,97579.91
2023-01-04T06:04:59.087Z,97599.50
2023-01-04T06:07:28.863Z,97600.19
2023-01-04T06:09:58.353Z,97604.84
2023-01-04T06:12:27.039Z,97606.00
2023-01-04T06:14:56.395Z,97603.97
2023-01-04T06:17:24.773Z,97604.66
2023-01-04T06:19:55.493Z,97611.03
2023-01-04T06:22:24.047Z,97603.66
2023-01-04T06:24:53.088Z,97604.34
2023-01-04T06:27:21.465Z,97600.63
2023-01-04T06:29:50.680Z,97600.16
2023-01-04T06:32:19.074Z,97594.97
2023-01-04T06:34:48.501Z,97581.41
2023-01-04T06:37:18.617Z,97573.88
2023-01-04T06:39:46.978Z,97583.59
2023-01-04T06:42:30.267Z,97574.88
2023-01-04T06:44:59.271Z,97561.44
2023-01-04T06:47:27.732Z,97561.59
2023-01-04T06:49:56.219Z,97567.44
2023-01-04T06:52:26.579Z,97562.91
2023-01-04T06:54:55.108Z,97543.81
2023-01-04T06:57:24.067Z,97549.84
2023-01-04T06:59:53.003Z,97553.22
2023-01-04T07:02:21.499Z,97557.28
2023-01-04T07:04:50.327Z,97555.09
2023-01-04T07:07:18.905Z,97549.56
2023-01-04T07:09:49.146Z,97549.41
2023-01-04T07:12:17.587Z,97546.75
2023-01-04T07:14:46.091Z,97525.16
2023-01-04T07:17:14.485Z,97548.59
2023-01-04T07:19:43.809Z,97538.69
2023-01-04T07:22:12.401Z,97531.34
2023-01-04T07:24:41.524Z,97535.69
2023-01-04T07:27:12.377Z,97548.25
2023-01-04T07:29:44.261Z,97548.91
2023-01-04T07:32:14.108Z,97550.91
2023-01-04T07:34:43.280Z,97544.22
2023-01-04T07:37:13.070Z,97456.75
2023-01-04T07:39:41.537Z,97554.28
2023-01-04T07:42:11.350Z,97542.38
2023-01-04T07:44:40.242Z,97539.69
2023-01-04T07:47:08.876Z,97539.66
2023-01-04T07:49:38.161Z,97517.91
2023-01-04T07:52:06.558Z,97514.38
2023-01-04T07:54:35.842Z,97490.09
2023-01-04T07:57:04.222Z,97511.81
2023-01-04T07:59:34.687Z,97508.28
2023-01-04T08:02:03.685Z,97503.75
2023-01-04T08:04:35.111Z,97505.75
2023-01-04T08:07:07.337Z,97497.22
2023-01-04T08:09:35.744Z,97501.84
2023-01-04T08:12:05.415Z,97498.16
2023-01-04T08:14:44.418Z,97500.97
2023-01-04T08:17:13.481Z,97502.94
2023-01-04T08:19:42.314Z,97501.69
2023-01-04T08:22:10.708Z,97494.66
2023-01-04T08:24:40.699Z,97502.66
2023-01-04T08:27:09.061Z,97502.72
2023-01-04T08:29:37.729Z,97502.91
2023-01-04T08:32:07.701Z,97507.94
2023-01-04T08:34:36.435Z,97520.06
2023-01-04T08:37:04.773Z,97517.47
2023-01-04T08:39:36.044Z,97522.84
2023-01-04T08:42:17.960Z,97514.13
2023-01-04T08:44:57.109Z,97520.31
2023-01-04T08:47:29.752Z,97522.97
2023-01-04T08:49:59.856Z,97507.47
2023-01-04T08:52:29.957Z,97512.00
2023-01-04T08:54:59.090Z,97501.25
2023-01-04T08:57:27.589Z,97498.63
2023-01-04T08:59:56.706Z,97491.50
2023-01-04T09:02:29.005Z,97482.28
2023-01-04T09:05:00.535Z,97480.47
2023-01-04T09:07:30.692Z,97486.53
2023-01-04T09:10:00.678Z,97485.81
2023-01-04T09:12:29.157Z,97490.28
2023-01-04T09:14:57.910Z,97485.72
2023-01-04T09:17:28.167Z,97482.75
2023-01-04T09:19:56.581Z,97478.69
2023-01-04T09:22:26.222Z,97469.97
2023-01-04T09:24:55.221Z,97453.22
2023-01-04T09:27:24.421Z,97467.81
2023-01-04T09:29:53.850Z,97455.09
2023-01-04T09:32:22.264Z,97463.78
2023-01-04T09:34:53.230Z,97462.38
2023-01-04T09:37:22.089Z,97457.19
2023-01-04T09:39:50.567Z,97461.81
2023-01-04T09:42:25.402Z,97450.38
2023-01-04T09:47:54.615Z,97440.19
2023-01-04T09:50:29.256Z,97454.56
2023-01-04T09:53:04.612Z,97455.81
2023-01-04T09:55:40.869Z,97448.50
2023-01-04T09:58:22.267Z,97435.06
2023-01-04T10:00:53.552Z,97438.81
2023-01-04T10:03:27.186Z,97434.03
2023-01-04T10:05:57.616Z,97430.88
2023-01-04T10:08:26.673Z,97424.38
2023-01-04T10:11:10.279Z,97423.91
2023-01-04T10:13:53.462Z,97423.69
2023-01-04T10:17:10.424Z,97406.34
2023-01-04T10:22:38.471Z,97399.78
2023-01-04T10:25:25.595Z,97396.56
2023-01-04T10:28:12.186Z,97387.69
2023-01-04T10:30:50.639Z,97380.66
2023-01-04T10:33:25.249Z,97371.47
2023-01-04T10:35:55.083Z,97363.59
2023-01-04T10:38:28.573Z,97358.00
2023-01-04T10:41:01.011Z,97352.81
2023-01-04T10:44:09.706Z,97349.28
2023-01-04T10:46:31.780Z,97341.88
2023-01-04T10:49:08.530Z,97329.06
2023-01-04T10:51:42.245Z,97330.34
2023-01-04T10:54:17.743Z,97330.53
2023-01-04T10:56:52.432Z,97322.03
2023-01-04T10:59:25.415Z,97306.06
2023-01-04T11:02:00.096Z,97322.91
2023-01-04T11:04:34.268Z,97319.63
2023-01-04T11:07:09.110Z,97312.56
2023-01-04T11:09:44.325Z,97321.50
2023-01-04T11:12:16.918Z,97296.78
2023-01-04T11:14:46.398Z,97319.28
2023-01-04T11:17:15.173Z,97320.53
2023-01-04T11:19:44.836Z,97318.47
2023-01-04T11:22:18.716Z,97328.03
2023-01-04T11:25:33.196Z,97319.72
2023-01-04T11:27:47.647Z,97313.75
2023-01-04T11:30:20.569Z,97316.25
2023-01-04T11:32:56.030Z,97315.84
2023-01-04T11:35:42.745Z,97311.28
2023-01-04T11:38:14.933Z,97304.44
2023-01-04T11:40:56.508Z,97292.41
2023-01-04T11:43:26.534Z,97285.97
2023-01-04T11:46:22.932Z,97288.03
2023-01-04T11:48:52.600Z,97291.78
2023-01-04T11:51:36.942Z,97283.09
2023-01-04T11:54:08.058Z,97271.03
2023-01-04T11:56:38.859Z,97265.03
2023-01-04T11:59:17.963Z,97248.84
2023-01-04T12:01:51.718Z,97268.34
2023-01-04T12:04:23.556Z,97261.28
2023-01-04T12:06:54.898Z,97259.44
2023-01-04T12:09:24.124Z,97266.69
2023-01-04T12:11:56.236Z,97268.56
2023-01-04T12:14:27.157Z,97240.75
2023-01-04T12:17:01.663Z,97227.25
2023-01-04T12:19:31.782Z,97252.16
2023-01-04T12:22:02.549Z,97247.59
2023-01-04T12:24:33.893Z,97252.38
2023-01-04T12:27:04.987Z,97238.88
2023-01-04T12:29:50.385Z,97231.16
2023-01-04T12:32:42.885Z,97230.56
2023-01-04T12:36:06.664Z,97225.78
2023-01-04T12:39:07.291Z,97215.78
2023-01-04T12:42:22.286Z,97212.69
2023-01-04T12:45:25.257Z,97203.53
2023-01-04T12:48:12.741Z,97209.13
2023-01-04T12:51:31.149Z,97210.81
2023-01-04T12:54:03.496Z,97216.22
2023-01-04T12:57:08.993Z,97199.81
2023-01-04T12:59:39.656Z,97214.13
2023-01-04T13:02:26.797Z,97211.00
2023-01-04T13:05:43.785Z,97208.50
2023-01-04T13:07:50.013Z,97199.78
2023-01-04T13:10:27.157Z,97196.88
2023-01-04T13:13:06.299Z,97206.03
2023-01-04T13:15:53.871Z,97184.41
2023-01-04T13:18:34.786Z,97177.13
2023-01-04T13:21:05.990Z,97184.81
2023-01-04T13:23:34.462Z,97176.09
2023-01-04T13:26:29.557Z,97172.75
2023-01-04T13:29:14.426Z,97175.88
2023-01-04T13:31:52.267Z,97161.53
2023-01-04T13:34:25.439Z,97176.31
2023-01-04T13:36:56.765Z,97163.63
2023-01-04T13:39:25.621Z,97196.03
2023-01-04T13:41:54.793Z,97177.31
2023-01-04T13:45:20.888Z,97188.53
2023-01-04T13:47:42.119Z,97168.38
2023-01-04T13:50:28.640Z,97154.91
2023-01-04T13:53:13.548Z,97160.06
2023-01-04T13:55:42.328Z,97161.94
2023-01-04T13:58:19.075Z,97163.19
2023-01-04T14:00:51.552Z,97149.91
2023-01-04T14:03:41.395Z,97151.75
2023-01-04T14:06:32.854Z,97150.47
2023-01-04T14:09:05.606Z,97143.88
2023-01-04T14:12:08.482Z,97151.72
2023-01-04T14:14:49.270Z,97152.78
2023-01-04T14:17:21.855Z,97158.19
2023-01-04T14:19:53.600Z,97152.56
2023-01-04T14:22:39.894Z,97148.38
2023-01-04T14:25:40.464Z,97151.06
2023-01-04T14:28:22.360Z,97144.84
2023-01-04T14:30:52.441Z,97138.84
2023-01-04T14:33:28.243Z,97129.25
2023-01-04T14:36:05.493Z,97136.94
2023-01-04T14:38:39.728Z,97118.84
2023-01-04T14:41:13.489Z,97128.19
2023-01-04T14:43:47.801Z,97108.22
2023-01-04T14:46:16.934Z,97115.28
2023-01-04T14:48:45.816Z,97115.28
2023-01-04T14:51:18.120Z,97090.38
2023-01-04T14:53:48.330Z,97079.34
2023-01-04T14:56:18.726Z,97102.16
2023-01-04T14:58:47.082Z,97109.78
2023-01-04T15:01:16.140Z,97104.38
2023-01-04T15:03:44.682Z,97096.06
2023-01-04T15:06:14.350Z,97089.03
2023-01-04T15:08:43.192Z,97082.56
2023-01-04T15:11:13.891Z,97085.25
2023-01-04T15:13:43.279Z,97089.03
2023-01-04T15:16:14.309Z,97082.78
2023-01-04T15:18:43.200Z,97072.00
2023-01-04T15:21:12.543Z,97085.50
2023-01-04T15:23:41.629Z,97081.31
2023-01-04T15:26:14.235Z,97089.25
2023-01-04T15:28:42.882Z,97091.13
2023-01-04T15:31:14.337Z,97092.38
2023-01-04T15:33:42.715Z,97093.41
2023-01-04T15:36:20.013Z,97090.91
2023-01-04T15:38:55.479Z,97099.84
2023-01-04T15:41:43.420Z,97101.94
2023-01-04T15:44:12.478Z,97098.19
2023-01-04T15:46:41.625Z,97094.66
2023-01-04T15:49:16.704Z,97095.06
2023-01-04T15:51:46.142Z,97101.47
2023-01-04T15:54:15.604Z,97107.72
2023-01-04T15:56:45.362Z,97092.13
2023-01-04T15:59:15.129Z,97079.66
2023-01-04T16:01:43.979Z,97094.81
2023-01-04T16:04:12.904Z,97097.69
2023-01-04T16:06:41.821Z,97096.03
2023-01-04T16:09:11.184Z,97079.84
2023-01-04T16:12:01.548Z,97097.25
2023-01-04T16:14:31.850Z,97085.59
2023-01-04T16:17:00.687Z,97086.44
2023-01-04T16:19:32.212Z,97091.03
2023-01-04T16:22:01.719Z,97078.31
2023-01-04T16:25:08.814Z,97075.63
2023-01-04T16:27:19.650Z,97086.25
2023-01-04T16:29:51.067Z,97078.97
2023-01-04T16:32:20.044Z,97068.19
2023-01-04T16:34:51.009Z,97076.84
2023-01-04T16:37:19.535Z,97076.84
2023-01-04T16:40:05.879Z,97069.78
2023-01-04T16:42:35.648Z,97070.84
2023-01-04T16:45:06.666Z,97070.84
2023-01-04T16:47:41.116Z,97080.84
2023-01-04T16:50:11.235Z,97076.63
2023-01-04T16:52:42.689Z,97066.44
2023-01-04T16:55:12.105Z,97074.75
2023-01-04T16:57:40.527Z,97072.28
2023-01-04T17:00:12.128Z,97074.75
2023-01-04T17:02:40.635Z,97060.81
2023-01-04T17:05:10.232Z,97063.53
2023-01-04T17:07:38.633Z,97056.22
2023-01-04T17:10:08.295Z,97056.00
2023-01-04T17:12:52.522Z,97041.44
2023-01-04T17:18:15.244Z,97048.72
2023-01-04T17:20:44.095Z,97056.00
2023-01-04T17:23:12.826Z,97049.78
2023-01-04T17:25:41.424Z,97052.25
2023-01-04T17:28:10.860Z,97048.13
2023-01-04T17:30:43.490Z,97033.16
2023-01-04T17:33:12.776Z,97031.91
2023-01-04T17:35:41.815Z,97026.91
2023-01-04T17:38:10.418Z,97022.34
2023-01-04T17:40:39.210Z,97010.91
2023-01-04T17:43:07.634Z,97004.06
2023-01-04T17:45:36.507Z,96999.50
2023-01-04T17:48:07.993Z,97004.44
2023-01-04T17:50:36.391Z,97010.69
2023-01-04T17:53:05.645Z,97020.91
2023-01-04T17:55:35.776Z,97026.31
2023-01-04T17:58:08.031Z,96993.31
2023-01-04T18:00:42.897Z,97005.72
2023-01-04T18:03:13.036Z,96990.34
2023-01-04T18:05:51.909Z,96991.97
2023-01-04T18:08:21.745Z,96989.28
2023-01-04T18:11:06.763Z,96987.63
2023-01-04T18:16:23.970Z,96988.69
2023-01-04T18:18:56.211Z,96989.72
2023-01-04T18:21:29.191Z,96990.97
2023-01-04T18:29:37.480Z,96979.53
2023-01-04T18:32:06.327Z,96969.97
2023-01-04T18:34:36.223Z,96972.06
2023-01-04T18:37:04.796Z,96979.16
2023-01-04T18:39:33.120Z,96949.41
2023-01-04T18:42:01.550Z,96941.88
2023-01-04T18:44:33.370Z,96930.47
2023-01-04T18:47:02.791Z,96931.72
2023-01-04T18:49:32.013Z,96926.72
2023-01-04T18:52:01.721Z,96921.75
2023-01-04T18:54:30.955Z,96937.97
2023-01-04T18:57:01.203Z,96943.59
2023-01-04T18:59:30.384Z,96941.94
2023-01-04T19:02:02.304Z,96955.47
2023-01-04T19:04:34.408Z,96942.13
2023-01-04T19:07:04.164Z,96938.59
2023-01-04T19:09:33.192Z,96940.44
2023-01-04T19:12:02.518Z,96936.72
2023-01-04T19:14:31.088Z,96944.59
2023-01-04T19:16:59.600Z,96913.09
2023-01-04T19:19:28.001Z,96931.69
2023-01-04T19:21:56.832Z,96920.63
2023-01-04T19:24:26.833Z,96926.88
2023-01-04T19:27:02.962Z,96925.44
2023-01-04T19:29:32.835Z,96917.94
2023-01-04T19:32:01.336Z,96915.50
2023-01-04T19:34:30.506Z,96928.91
2023-01-04T19:36:58.896Z,96934.09
2023-01-04T19:39:29.297Z,96928.69
2023-01-04T19:41:57.879Z,96925.16
2023-01-04T19:44:26.715Z,96918.69
2023-01-04T19:46:55.538Z,96930.13
2023-01-04T19:49:23.965Z,96844.84
2023-01-04T19:51:52.343Z,96925.56
2023-01-04T19:54:25.386Z,96926.75
2023-01-04T19:56:55.891Z,96892.72
2023-01-04T19:59:24.428Z,96913.41
2023-01-04T20:01:53.084Z,96913.63
2023-01-04T20:04:21.998Z,96896.63
2023-01-04T20:06:50.443Z,96920.22
2023-01-04T20:09:24.734Z,96907.31
2023-01-04T20:11:55.315Z,96894.13
2023-01-04T20:14:24.413Z,96905.00
2023-01-04T20:16:53.447Z,96900.63
2023-01-04T20:19:21.871Z,96907.63
2023-01-04T20:21:50.914Z,96912.56
2023-01-04T20:24:19.447Z,96910.34
2023-01-04T20:26:48.444Z,96921.50
2023-01-04T20:29:18.929Z,96915.09
2023-01-04T20:31:47.601Z,96899.34
2023-01-04T20:34:16.626Z,96916.94
2023-01-04T20:36:45.004Z,96839.97
2023-01-04T20:39:13.383Z,96917.09
2023-01-04T20:42:02.418Z,96908.53
2023-01-04T20:44:31.352Z,96908.75
2023-01-04T20:46:59.952Z,96887.41
2023-01-04T20:49:28.898Z,96915.19
2023-01-04T20:51:57.433Z,96882.97
2023-01-04T20:54:26.572Z,96907.88
2023-01-04T20:56:55.408Z,96898.50
2023-01-04T20:59:23.859Z,96892.63
2023-01-04T21:01:54.509Z,96893.22
2023-01-04T21:04:23.049Z,96907.56
2023-01-04T21:06:51.929Z,96900.28
2023-01-04T21:09:20.733Z,96893.84
2023-01-04T21:11:49.187Z,96887.97
2023-01-04T21:14:18.336Z,96858.03
2023-01-04T21:16:46.755Z,96872.19
2023-01-04T21:19:17.484Z,96870.44
2023-01-04T21:21:46.300Z,96865.03
2023-01-04T21:24:14.723Z,96874.81
2023-01-04T21:26:43.540Z,96878.34
2023-01-04T21:29:11.981Z,96877.88
2023-01-04T21:31:40.673Z,96867.66
2023-01-04T21:34:14.309Z,96884.50
2023-01-04T21:36:45.862Z,96878.88
2023-01-04T21:39:14.700Z,96860.97
2023-01-04T21:41:47.887Z,96865.91
2023-01-04T21:44:17.596Z,96868.41
2023-01-04T21:46:46.182Z,96879.22
2023-01-04T21:49:15.277Z,96845.13
2023-01-04T21:51:44.997Z,96872.16
2023-01-04T21:54:13.884Z,96892.75
2023-01-04T21:56:43.238Z,96855.09
2023-01-04T21:59:11.856Z,96861.72
2023-01-04T22:01:40.964Z,96869.59
2023-01-04T22:04:09.959Z,96830.47
2023-01-04T22:06:41.554Z,96863.28
2023-01-04T22:09:11.321Z,96855.75
2023-01-04T22:11:41.273Z,96866.09
2023-01-04T22:14:11.988Z,96855.75
2023-01-04T22:16:40.544Z,96855.38
2023-01-04T22:19:13.312Z,96862.81
2023-01-04T22:21:42.922Z,96872.00
2023-01-04T22:24:14.606Z,96841.63
2023-01-04T22:26:44.956Z,96851.97
2023-01-04T22:29:13.735Z,96846.22
2023-01-04T22:31:42.413Z,96855.75
2023-01-04T22:34:11.185Z,96880.13
2023-01-04T22:36:40.095Z,96897.44
2023-01-04T22:39:08.994Z,96880.59
2023-01-04T22:41:40.097Z,96862.31
2023-01-04T22:44:08.588Z,96848.53
2023-01-04T22:46:37.212Z,96868.31
2023-01-04T22:49:06.519Z,96855.59
2023-01-04T22:51:34.861Z,96873.28
2023-01-04T22:54:05.645Z,96843.78
2023-01-04T22:56:35.050Z,96862.47
2023-01-04T22:59:04.789Z,96852.44
2023-01-04T23:01:34.915Z,96861.16
2023-01-04T23:04:04.993Z,96851.16
2023-01-04T23:06:34.883Z,96844.31
2023-01-04T23:09:05.656Z,96862.81
2023-01-04T23:11:36.607Z,96842.78
2023-01-04T23:14:09.008Z,96830.69
2023-01-04T23:16:37.483Z,96843.19
2023-01-04T23:19:07.998Z,96835.88
2023-01-04T23:21:37.045Z,96822.34
2023-01-04T23:24:07.134Z,96829.41
2023-01-04T23:26:35.912Z,96822.34
2023-01-04T23:29:04.340Z,96822.94
2023-01-04T23:31:35.878Z,96827.38
2023-01-04T23:34:06.519Z,96818.81
2023-01-04T23:36:37.747Z,96831.28
2023-01-04T23:39:09.105Z,96819.53
2023-01-04T23:41:47.926Z,96821.44
2023-01-04T23:44:19.144Z,96821.88
2023-01-04T23:46:53.752Z,96811.94
2023-01-04T23:49:23.337Z,96826.00
2023-01-04T23:51:52.780Z,96831.88
2023-01-04T23:54:21.632Z,96838.69
2023-01-04T23:56:50.817Z,96758.63
2023-01-04T23:59:20.429Z,96838.25
